PWSweather.com
Personal Weather Stations
Station Observations
CANDIOTINO
Barrio Candioti Norte, Santa FeAR 3000

Barrio Candioti NorteSanta FeAR 3000

Lat: -31.632778, Lon: -60.695556

Elevation: 69

Station Type: WH-1081

http://www.eltiempoensantafe.com.ar

High Low Average
Temperature 82.0°F27.8°C 59.2°F15.1°C 67.5°F19.7°C
Dew Point 64.1°F17.8°C 53.4°F11.9°C 59.1°F15.1°C
Winds 6.0 mph 9.7 kmh Calm Calm 2.0 mph ESE3.2 kmh ESE
Wind Gusts 9.2 mph14.8 kmh 0.7 mph1.1 kmh 5.0 mph8.0 kmh
Humidity 96% 51% 76%
Pressure 30.20 in1022.7 mb 30.09 in1019.0 mb -
Precipitation 0.25 in6.4 mm - -
Hour Temp Dew Point Humidity Winds Wind Gusts Pressure Precip Precip Rate Daily Precip Total
12:00 AM 62.8°F17.1°C 53.6°F12.0°C 72% Calm Calm 2.2 mph3.5 kmh 30.16 in1021.3 mb 0.00 in0.0 mm 0.00 in0.0 mm 0.00 in0.0 mm
12:15 AM 62.8°F17.1°C 54.0°F12.2°C 73% 1.6 mph SE2.6 kmh SE 3.1 mph5.0 kmh 30.17 in1021.7 mb 0.00 in0.0 mm 0.00 in0.0 mm 0.00 in0.0 mm
12:30 AM 63.1°F17.3°C 53.6°F12.0°C 71% 0.7 mph SE1.1 kmh SE 3.1 mph5.0 kmh 30.17 in1021.7 mb 0.00 in0.0 mm 0.00 in0.0 mm 0.00 in0.0 mm
12:45 AM 63.1°F17.3°C 54.0°F12.2°C 72% 1.6 mph ESE2.6 kmh ESE 3.8 mph6.1 kmh 30.18 in1022.0 mb 0.00 in0.0 mm 0.00 in0.0 mm 0.00 in0.0 mm
01:00 AM 63.1°F17.3°C 53.6°F12.0°C 71% 1.6 mph SE2.6 kmh SE 4.5 mph7.2 kmh 30.17 in1021.7 mb 0.00 in0.0 mm 0.00 in0.0 mm 0.00 in0.0 mm
01:15 AM 63.3°F17.4°C 53.8°F12.1°C 71% 0.7 mph ENE1.1 kmh ENE 3.8 mph6.1 kmh 30.17 in1021.7 mb 0.00 in0.0 mm 0.00 in0.0 mm 0.00 in0.0 mm
01:30 AM 63.3°F17.4°C 53.4°F11.9°C 70% 1.6 mph SE2.6 kmh SE 3.1 mph5.0 kmh 30.16 in1021.3 mb 0.01 in0.3 mm 0.04 in1.0 mm 0.01 in0.3 mm
01:45 AM 62.6°F17.0°C 53.5°F11.9°C 72% 1.6 mph ENE2.6 kmh ENE 2.2 mph3.5 kmh 30.17 in1021.7 mb 0.02 in0.5 mm 0.04 in1.0 mm 0.02 in0.5 mm
02:00 AM 61.5°F16.4°C 55.3°F12.9°C 80% 0.7 mph NW1.1 kmh NW 2.2 mph3.5 kmh 30.17 in1021.7 mb 0.04 in1.0 mm 0.03 in0.8 mm 0.04 in1.0 mm
02:15 AM 60.6°F15.9°C 56.1°F13.4°C 85% 1.6 mph N2.6 kmh N 3.8 mph6.1 kmh 30.15 in1021.0 mb 0.07 in1.8 mm 0.12 in3.0 mm 0.08 in2.0 mm
02:30 AM 59.9°F15.5°C 56.4°F13.6°C 88% 0.7 mph W1.1 kmh W 6.0 mph9.7 kmh 30.16 in1021.3 mb 0.13 in3.3 mm 0.24 in6.1 mm 0.14 in3.6 mm
02:45 AM 59.5°F15.3°C 56.6°F13.7°C 90% 3.1 mph SW5.0 kmh SW 6.9 mph11.1 kmh 30.17 in1021.7 mb 0.18 in4.6 mm 0.20 in5.1 mm 0.20 in5.1 mm
03:00 AM 59.4°F15.2°C 57.0°F13.9°C 92% 0.7 mph WSW1.1 kmh WSW 5.4 mph8.7 kmh 30.15 in1021.0 mb 0.18 in4.6 mm 0.00 in0.0 mm 0.21 in5.3 mm
03:15 AM 59.4°F15.2°C 57.0°F13.9°C 92% 0.7 mph SW1.1 kmh SW 1.6 mph2.6 kmh 30.15 in1021.0 mb 0.13 in3.3 mm 0.00 in0.0 mm 0.21 in5.3 mm
03:30 AM 59.4°F15.2°C 57.0°F13.9°C 92% 0.7 mph SW1.1 kmh SW 1.6 mph2.6 kmh 30.14 in1020.7 mb 0.07 in1.8 mm 0.00 in0.0 mm 0.21 in5.3 mm
03:45 AM 59.5°F15.3°C 57.8°F14.3°C 94% 1.6 mph W2.6 kmh W 3.1 mph5.0 kmh 30.15 in1021.0 mb 0.01 in0.3 mm 0.00 in0.0 mm 0.21 in5.3 mm
04:00 AM 59.7°F15.4°C 58.0°F14.4°C 94% 0.7 mph WNW1.1 kmh WNW 4.5 mph7.2 kmh 30.15 in1021.0 mb 0.00 in0.0 mm 0.00 in0.0 mm 0.21 in5.3 mm
04:15 AM 59.7°F15.4°C 58.0°F14.4°C 94% 1.6 mph WSW2.6 kmh WSW 4.5 mph7.2 kmh 30.15 in1021.0 mb 0.00 in0.0 mm 0.00 in0.0 mm 0.21 in5.3 mm
04:30 AM 59.7°F15.4°C 58.0°F14.4°C 94% 1.6 mph SW2.6 kmh SW 6.0 mph9.7 kmh 30.14 in1020.7 mb 0.00 in0.0 mm 0.00 in0.0 mm 0.21 in5.3 mm
04:45 AM 59.5°F15.3°C 57.5°F14.2°C 93% 3.1 mph S5.0 kmh S 4.5 mph7.2 kmh 30.14 in1020.7 mb 0.00 in0.0 mm 0.00 in0.0 mm 0.21 in5.3 mm
05:00 AM 59.5°F15.3°C 56.9°F13.8°C 91% 2.2 mph WSW3.5 kmh WSW 5.4 mph8.7 kmh 30.14 in1020.7 mb 0.00 in0.0 mm 0.00 in0.0 mm 0.21 in5.3 mm
05:15 AM 59.2°F15.1°C 56.9°F13.8°C 92% 1.6 mph S2.6 kmh S 3.8 mph6.1 kmh 30.14 in1020.7 mb 0.02 in0.5 mm 0.08 in2.0 mm 0.24 in6.1 mm
05:30 AM 59.2°F15.1°C 56.9°F13.8°C 92% 1.6 mph SSE2.6 kmh SSE 3.1 mph5.0 kmh 30.13 in1020.3 mb 0.02 in0.5 mm 0.00 in0.0 mm 0.24 in6.1 mm
05:45 AM 59.2°F15.1°C 56.9°F13.8°C 92% 1.6 mph SSE2.6 kmh SSE 3.1 mph5.0 kmh 30.14 in1020.7 mb 0.02 in0.5 mm 0.00 in0.0 mm 0.24 in6.1 mm
06:00 AM 59.2°F15.1°C 56.9°F13.8°C 92% 1.6 mph SSE2.6 kmh SSE 3.1 mph5.0 kmh 30.15 in1021.0 mb 0.02 in0.5 mm 0.00 in0.0 mm 0.24 in6.1 mm
06:15 AM 59.2°F15.1°C 56.9°F13.8°C 92% 1.6 mph SSE2.6 kmh SSE 3.1 mph5.0 kmh 30.14 in1020.7 mb 0.00 in0.0 mm 0.00 in0.0 mm 0.24 in6.1 mm
06:30 AM 59.9°F15.5°C 58.8°F14.9°C 96% 2.2 mph SE3.5 kmh SE 4.5 mph7.2 kmh 30.15 in1021.0 mb 0.01 in0.3 mm 0.04 in1.0 mm 0.25 in6.4 mm
06:45 AM 59.5°F15.3°C 56.6°F13.7°C 90% 3.1 mph SSE5.0 kmh SSE 6.0 mph9.7 kmh 30.14 in1020.7 mb 0.01 in0.3 mm 0.00 in0.0 mm 0.25 in6.4 mm
07:00 AM 59.4°F15.2°C 55.8°F13.2°C 88% 4.5 mph SE7.2 kmh SE 6.9 mph11.1 kmh 30.15 in1021.0 mb 0.01 in0.3 mm 0.00 in0.0 mm 0.25 in6.4 mm
07:15 AM 59.5°F15.3°C 56.0°F13.3°C 88% 0.7 mph ESE1.1 kmh ESE 4.5 mph7.2 kmh 30.16 in1021.3 mb 0.01 in0.3 mm 0.00 in0.0 mm 0.25 in6.4 mm
07:30 AM 59.5°F15.3°C 55.7°F13.2°C 87% 3.1 mph E5.0 kmh E 6.0 mph9.7 kmh 30.16 in1021.3 mb 0.00 in0.0 mm 0.00 in0.0 mm 0.25 in6.4 mm
07:45 AM 59.9°F15.5°C 55.1°F12.8°C 84% 5.4 mph ESE8.7 kmh ESE 7.6 mph12.2 kmh 30.16 in1021.3 mb 0.00 in0.0 mm 0.00 in0.0 mm 0.25 in6.4 mm
08:00 AM 59.9°F15.5°C 55.1°F12.8°C 84% 3.1 mph ESE5.0 kmh ESE 5.4 mph8.7 kmh 30.16 in1021.3 mb 0.00 in0.0 mm 0.00 in0.0 mm 0.25 in6.4 mm
08:15 AM 60.1°F15.6°C 55.2°F12.9°C 84% 3.8 mph SE6.1 kmh SE 6.9 mph11.1 kmh 30.15 in1021.0 mb 0.00 in0.0 mm 0.00 in0.0 mm 0.25 in6.4 mm
08:30 AM 60.1°F15.6°C 55.2°F12.9°C 84% 2.2 mph ESE3.5 kmh ESE 7.6 mph12.2 kmh 30.15 in1021.0 mb 0.00 in0.0 mm 0.00 in0.0 mm 0.25 in6.4 mm
08:45 AM 60.1°F15.6°C 55.6°F13.1°C 85% 3.1 mph E5.0 kmh E 7.6 mph12.2 kmh 30.16 in1021.3 mb 0.00 in0.0 mm 0.00 in0.0 mm 0.25 in6.4 mm
09:00 AM 60.4°F15.8°C 55.6°F13.1°C 84% 2.2 mph SE3.5 kmh SE 7.6 mph12.2 kmh 30.16 in1021.3 mb 0.00 in0.0 mm 0.00 in0.0 mm 0.25 in6.4 mm
09:15 AM 61.2°F16.2°C 56.0°F13.3°C 83% 3.1 mph E5.0 kmh E 6.9 mph11.1 kmh 30.17 in1021.7 mb 0.00 in0.0 mm 0.00 in0.0 mm 0.25 in6.4 mm
09:30 AM 61.7°F16.5°C 56.2°F13.4°C 82% 5.4 mph SE8.7 kmh SE 8.3 mph13.4 kmh 30.17 in1021.7 mb 0.00 in0.0 mm 0.00 in0.0 mm 0.25 in6.4 mm
09:45 AM 62.4°F16.9°C 56.2°F13.4°C 80% 0.7 mph E1.1 kmh E 6.0 mph9.7 kmh 30.18 in1022.0 mb 0.00 in0.0 mm 0.00 in0.0 mm 0.25 in6.4 mm
10:00 AM 63.7°F17.6°C 56.4°F13.6°C 77% 2.2 mph E3.5 kmh E 7.6 mph12.2 kmh 30.19 in1022.4 mb 0.00 in0.0 mm 0.00 in0.0 mm 0.25 in6.4 mm
10:15 AM 64.8°F18.2°C 57.0°F13.9°C 76% 1.6 mph SE2.6 kmh SE 5.4 mph8.7 kmh 30.18 in1022.0 mb 0.00 in0.0 mm 0.00 in0.0 mm 0.25 in6.4 mm
10:30 AM 64.9°F18.3°C 57.2°F14.0°C 76% 3.1 mph E5.0 kmh E 9.2 mph14.8 kmh 30.19 in1022.4 mb 0.00 in0.0 mm 0.00 in0.0 mm 0.25 in6.4 mm
10:45 AM 65.5°F18.6°C 57.7°F14.3°C 76% 1.6 mph E2.6 kmh E 6.0 mph9.7 kmh 30.19 in1022.4 mb 0.00 in0.0 mm 0.00 in0.0 mm 0.25 in6.4 mm
11:00 AM 65.5°F18.6°C 58.1°F14.5°C 77% 0.7 mph ENE1.1 kmh ENE 5.4 mph8.7 kmh 30.20 in1022.7 mb 0.00 in0.0 mm 0.00 in0.0 mm 0.25 in6.4 mm
11:15 AM 66.2°F19.0°C 58.8°F14.9°C 77% 0.7 mph ESE1.1 kmh ESE 3.1 mph5.0 kmh 30.19 in1022.4 mb 0.00 in0.0 mm 0.00 in0.0 mm 0.25 in6.4 mm
12:30 PM 71.6°F22.0°C 59.2°F15.1°C 65% Calm Calm 6.0 mph9.7 kmh 30.18 in1022.0 mb 0.00 in0.0 mm 0.00 in0.0 mm 0.25 in6.4 mm
12:45 PM 73.8°F23.2°C 61.3°F16.3°C 65% 3.1 mph NE5.0 kmh NE 5.4 mph8.7 kmh 30.18 in1022.0 mb 0.00 in0.0 mm 0.00 in0.0 mm 0.25 in6.4 mm
01:00 PM 75.2°F24.0°C 59.9°F15.5°C 59% 0.7 mph NE1.1 kmh NE 6.0 mph9.7 kmh 30.17 in1021.7 mb 0.00 in0.0 mm 0.00 in0.0 mm 0.25 in6.4 mm
01:15 PM 76.5°F24.7°C 61.1°F16.2°C 59% 0.7 mph E1.1 kmh E 3.8 mph6.1 kmh 30.16 in1021.3 mb 0.00 in0.0 mm 0.00 in0.0 mm 0.25 in6.4 mm
01:30 PM 76.1°F24.5°C 59.3°F15.2°C 56% 3.1 mph NE5.0 kmh NE 6.0 mph9.7 kmh 30.16 in1021.3 mb 0.00 in0.0 mm 0.00 in0.0 mm 0.25 in6.4 mm
01:45 PM 75.9°F24.4°C 60.1°F15.6°C 58% 3.8 mph NE6.1 kmh NE 6.9 mph11.1 kmh 30.15 in1021.0 mb 0.00 in0.0 mm 0.00 in0.0 mm 0.25 in6.4 mm
02:00 PM 78.1°F25.6°C 61.1°F16.2°C 56% 4.5 mph ENE7.2 kmh ENE 9.2 mph14.8 kmh 30.14 in1020.7 mb 0.00 in0.0 mm 0.00 in0.0 mm 0.25 in6.4 mm
02:15 PM 79.2°F26.2°C 60.6°F15.9°C 53% Calm Calm 4.5 mph7.2 kmh 30.14 in1020.7 mb 0.00 in0.0 mm 0.00 in0.0 mm 0.25 in6.4 mm
02:30 PM 79.9°F26.6°C 61.3°F16.3°C 53% 0.7 mph NE1.1 kmh NE 5.4 mph8.7 kmh 30.13 in1020.3 mb 0.00 in0.0 mm 0.00 in0.0 mm 0.25 in6.4 mm
02:45 PM 79.7°F26.5°C 60.6°F15.9°C 52% 6.0 mph E9.7 kmh E 7.6 mph12.2 kmh 30.13 in1020.3 mb 0.00 in0.0 mm 0.00 in0.0 mm 0.25 in6.4 mm
03:00 PM 79.9°F26.6°C 61.3°F16.3°C 53% 2.2 mph ENE3.5 kmh ENE 4.5 mph7.2 kmh 30.12 in1020.0 mb 0.00 in0.0 mm 0.00 in0.0 mm 0.25 in6.4 mm
03:15 PM 79.3°F26.3°C 60.8°F16.0°C 53% Calm Calm 4.5 mph7.2 kmh 30.12 in1020.0 mb 0.00 in0.0 mm 0.00 in0.0 mm 0.25 in6.4 mm
03:30 PM 81.1°F27.3°C 61.3°F16.3°C 51% 3.8 mph ESE6.1 kmh ESE 6.0 mph9.7 kmh 30.11 in1019.6 mb 0.00 in0.0 mm 0.00 in0.0 mm 0.25 in6.4 mm
03:45 PM 79.7°F26.5°C 61.1°F16.2°C 53% 1.6 mph ENE2.6 kmh ENE 6.0 mph9.7 kmh 30.11 in1019.6 mb 0.00 in0.0 mm 0.00 in0.0 mm 0.25 in6.4 mm
04:00 PM 78.6°F25.9°C 61.1°F16.2°C 55% 2.2 mph E3.5 kmh E 5.4 mph8.7 kmh 30.11 in1019.6 mb 0.00 in0.0 mm 0.00 in0.0 mm 0.25 in6.4 mm
04:15 PM 77.9°F25.5°C 61.0°F16.1°C 56% Calm Calm 3.8 mph6.1 kmh 30.10 in1019.3 mb 0.00 in0.0 mm 0.00 in0.0 mm 0.25 in6.4 mm
04:30 PM 78.8°F26.0°C 60.8°F16.0°C 54% 1.6 mph E2.6 kmh E 3.1 mph5.0 kmh 30.10 in1019.3 mb 0.00 in0.0 mm 0.00 in0.0 mm 0.25 in6.4 mm
04:45 PM 78.6°F25.9°C 61.7°F16.5°C 56% 2.2 mph ENE3.5 kmh ENE 3.8 mph6.1 kmh 30.10 in1019.3 mb 0.00 in0.0 mm 0.00 in0.0 mm 0.25 in6.4 mm
05:00 PM 78.1°F25.6°C 61.6°F16.4°C 57% Calm Calm 5.4 mph8.7 kmh 30.09 in1019.0 mb 0.00 in0.0 mm 0.00 in0.0 mm 0.25 in6.4 mm
05:15 PM 78.4°F25.8°C 61.5°F16.4°C 56% 0.7 mph NE1.1 kmh NE 3.8 mph6.1 kmh 30.09 in1019.0 mb 0.00 in0.0 mm 0.00 in0.0 mm 0.25 in6.4 mm
05:30 PM 82.0°F27.8°C 62.2°F16.8°C 51% 2.2 mph N3.5 kmh N 3.8 mph6.1 kmh 30.09 in1019.0 mb 0.00 in0.0 mm 0.00 in0.0 mm 0.25 in6.4 mm
05:45 PM 77.5°F25.3°C 61.1°F16.2°C 57% Calm Calm 3.1 mph5.0 kmh 30.09 in1019.0 mb 0.00 in0.0 mm 0.00 in0.0 mm 0.25 in6.4 mm
06:00 PM 79.5°F26.4°C 60.9°F16.1°C 53% Calm Calm 2.2 mph3.5 kmh 30.10 in1019.3 mb 0.00 in0.0 mm 0.00 in0.0 mm 0.25 in6.4 mm
06:15 PM 76.6°F24.8°C 61.3°F16.3°C 59% Calm Calm 0.7 mph1.1 kmh 30.10 in1019.3 mb 0.00 in0.0 mm 0.00 in0.0 mm 0.25 in6.4 mm
06:30 PM 74.5°F23.6°C 62.0°F16.7°C 65% 4.5 mph SE7.2 kmh SE 5.4 mph8.7 kmh 30.10 in1019.3 mb 0.00 in0.0 mm 0.00 in0.0 mm 0.25 in6.4 mm
06:45 PM 72.1°F22.3°C 62.6°F17.0°C 72% 3.1 mph S5.0 kmh S 6.0 mph9.7 kmh 30.09 in1019.0 mb 0.00 in0.0 mm 0.00 in0.0 mm 0.25 in6.4 mm
07:00 PM 71.1°F21.7°C 63.1°F17.3°C 76% 4.5 mph S7.2 kmh S 6.9 mph11.1 kmh 30.10 in1019.3 mb 0.00 in0.0 mm 0.00 in0.0 mm 0.25 in6.4 mm
07:15 PM 70.3°F21.3°C 62.8°F17.1°C 77% 5.4 mph S8.7 kmh S 8.3 mph13.4 kmh 30.10 in1019.3 mb 0.00 in0.0 mm 0.00 in0.0 mm 0.25 in6.4 mm
07:30 PM 70.0°F21.1°C 63.2°F17.3°C 79% 3.1 mph S5.0 kmh S 5.4 mph8.7 kmh 30.11 in1019.6 mb 0.00 in0.0 mm 0.00 in0.0 mm 0.25 in6.4 mm
07:45 PM 69.8°F21.0°C 62.7°F17.1°C 78% 2.2 mph S3.5 kmh S 5.4 mph8.7 kmh 30.10 in1019.3 mb 0.00 in0.0 mm 0.00 in0.0 mm 0.25 in6.4 mm
08:00 PM 69.4°F20.8°C 63.4°F17.4°C 81% 2.2 mph SSE3.5 kmh SSE 5.4 mph8.7 kmh 30.11 in1019.6 mb 0.00 in0.0 mm 0.00 in0.0 mm 0.25 in6.4 mm
08:15 PM 69.3°F20.7°C 63.9°F17.7°C 83% 1.6 mph SE2.6 kmh SE 4.5 mph7.2 kmh 30.12 in1020.0 mb 0.00 in0.0 mm 0.00 in0.0 mm 0.25 in6.4 mm
08:30 PM 69.3°F20.7°C 63.6°F17.6°C 82% 0.7 mph SSW1.1 kmh SSW 3.1 mph5.0 kmh 30.12 in1020.0 mb 0.00 in0.0 mm 0.00 in0.0 mm 0.25 in6.4 mm
08:45 PM 69.3°F20.7°C 63.9°F17.7°C 83% Calm Calm 3.1 mph5.0 kmh 30.13 in1020.3 mb 0.00 in0.0 mm 0.00 in0.0 mm 0.25 in6.4 mm
09:00 PM 69.4°F20.8°C 64.1°F17.8°C 83% Calm Calm 3.1 mph5.0 kmh 30.13 in1020.3 mb 0.00 in0.0 mm 0.00 in0.0 mm 0.25 in6.4 mm
09:15 PM 69.3°F20.7°C 63.2°F17.3°C 81% 3.1 mph S5.0 kmh S 6.9 mph11.1 kmh 30.14 in1020.7 mb 0.00 in0.0 mm 0.00 in0.0 mm 0.25 in6.4 mm
09:30 PM 69.3°F20.7°C 63.2°F17.3°C 81% 3.1 mph S5.0 kmh S 5.4 mph8.7 kmh 30.15 in1021.0 mb 0.00 in0.0 mm 0.00 in0.0 mm 0.25 in6.4 mm
09:45 PM 68.9°F20.5°C 63.2°F17.3°C 82% 1.6 mph S2.6 kmh S 5.4 mph8.7 kmh 30.14 in1020.7 mb 0.00 in0.0 mm 0.00 in0.0 mm 0.25 in6.4 mm
10:00 PM 69.1°F20.6°C 63.4°F17.4°C 82% 1.6 mph S2.6 kmh S 5.4 mph8.7 kmh 30.14 in1020.7 mb 0.00 in0.0 mm 0.00 in0.0 mm 0.25 in6.4 mm
10:15 PM 68.9°F20.5°C 63.6°F17.6°C 83% Calm Calm 3.1 mph5.0 kmh 30.14 in1020.7 mb 0.00 in0.0 mm 0.00 in0.0 mm 0.25 in6.4 mm
10:30 PM 68.7°F20.4°C 63.4°F17.4°C 83% Calm Calm 3.1 mph5.0 kmh 30.14 in1020.7 mb 0.00 in0.0 mm 0.00 in0.0 mm 0.25 in6.4 mm
10:45 PM 68.4°F20.2°C 63.0°F17.2°C 83% Calm Calm 1.6 mph2.6 kmh 30.14 in1020.7 mb 0.00 in0.0 mm 0.00 in0.0 mm 0.25 in6.4 mm
11:00 PM 68.2°F20.1°C 63.2°F17.3°C 84% 1.6 mph SE2.6 kmh SE 2.2 mph3.5 kmh 30.14 in1020.7 mb 0.00 in0.0 mm 0.00 in0.0 mm 0.25 in6.4 mm
11:15 PM 68.4°F20.2°C 63.7°F17.6°C 85% Calm Calm 2.2 mph3.5 kmh 30.15 in1021.0 mb 0.00 in0.0 mm 0.00 in0.0 mm 0.25 in6.4 mm
11:30 PM 68.2°F20.1°C 63.5°F17.5°C 85% Calm Calm 1.6 mph2.6 kmh 30.15 in1021.0 mb 0.00 in0.0 mm 0.00 in0.0 mm 0.25 in6.4 mm
11:45 PM 68.0°F20.0°C 63.7°F17.6°C 86% 0.7 mph S1.1 kmh S 1.6 mph2.6 kmh 30.15 in1021.0 mb 0.00 in0.0 mm 0.00 in0.0 mm 0.25 in6.4 mm